Time;durP1;ratioP1;P1;durP2;ratioP2;P2;SDS_P1;SDS_P2;PMS_P1;PMS_P2;Temp;Humidity;BMP_temperature;BMP_pressure;BME280_temperature;BME280_humidity;BME280_pressure;Samples;Min_cycle;Max_cycle;Signal;HPM_P1;HPM_P2
2020/03/04 16:07:40;;;;;;;12.6;6.6;;;;;;;7.6;56.59082;954.4453;;;;
2020/03/04 16:10:46;;;;;;;20.6;12.3;;;;;;;7.36;57.55176;954.4156;;;;
2020/03/04 16:13:08;;;;;;;18.2;10.8;;;;;;;7.28;57.42773;954.4534;;;;
2020/03/04 16:15:33;;;;;;;19.5;10.8;;;;;;;7.51;57.83594;954.4263;;;;
2020/03/04 16:17:58;;;;;;;8.9;5;;;;;;;7.41;57.59277;954.3842;;;;
2020/03/04 16:20:23;;;;;;;8.1;3.8;;;;;;;7.31;57.5459;954.3691;;;;
2020/03/04 16:22:49;;;;;;;7.2;3.1;;;;;;;7.38;57.72656;954.3542;;;;
2020/03/04 16:25:14;;;;;;;10.2;5.8;;;;;;;7.19;57.69141;954.3712;;;;
2020/03/04 16:27:39;;;;;;;8.4;4.7;;;;;;;7.18;60.13086;954.4476;;;;
2020/03/04 16:30:04;;;;;;;8.5;3.5;;;;;;;7.04;59.42773;954.408;;;;
2020/03/04 16:32:29;;;;;;;8.1;3.1;;;;;;;7.11;59.10449;954.4411;;;;
2020/03/04 16:34:54;;;;;;;5.6;2.4;;;;;;;7.1;59.10449;954.4103;;;;
2020/03/04 16:37:22;;;;;;;7.1;2.7;;;;;;;7.02;59.17383;954.4537;;;;
2020/03/04 16:39:46;;;;;;;7;2.6;;;;;;;6.86;58.87793;954.3875;;;;
2020/03/04 16:42:11;;;;;;;7;3.4;;;;;;;6.93;58.20313;954.4409;;;;
2020/03/04 16:44:37;;;;;;;6.1;3;;;;;;;6.94;59.35645;954.4314;;;;
2020/03/04 16:47:02;;;;;;;5.8;2.8;;;;;;;6.92;59.56934;954.4392;;;;
2020/03/04 16:49:27;;;;;;;5.7;2.7;;;;;;;6.93;59.64063;954.4402;;;;
2020/03/04 16:51:52;;;;;;;5.6;2.7;;;;;;;6.84;60.41406;954.408;;;;
2020/03/04 16:54:17;;;;;;;5;2.7;;;;;;;6.9;59.97949;954.4297;;;;
2020/03/04 16:56:42;;;;;;;6.2;2.5;;;;;;;7.04;57.88574;954.4874;;;;
2020/03/04 16:59:07;;;;;;;6.4;2.9;;;;;;;6.98;59.05371;954.5265;;;;
2020/03/04 17:01:32;;;;;;;7;3.1;;;;;;;7.01;58.81836;954.4932;;;;
2020/03/04 17:03:57;;;;;;;6;2.9;;;;;;;6.93;60.26855;954.5276;;;;
2020/03/04 17:06:22;;;;;;;5.9;2.6;;;;;;;6.93;59.04883;954.5154;;;;
2020/03/04 17:08:47;;;;;;;6.2;3.1;;;;;;;6.86;60.25781;954.5527;;;;
2020/03/04 17:11:13;;;;;;;8.3;3.9;;;;;;;6.93;59.8457;954.5924;;;;
2020/03/04 17:13:38;;;;;;;7.8;3.8;;;;;;;6.77;61.12402;954.548;;;;
2020/03/04 17:16:03;;;;;;;8.2;3.7;;;;;;;6.85;60.46191;954.5623;;;;
2020/03/04 17:18:28;;;;;;;6.4;3.4;;;;;;;6.72;60.88965;954.5839;;;;
2020/03/04 17:20:53;;;;;;;7.4;3.3;;;;;;;6.77;62.04688;954.6281;;;;
2020/03/04 17:23:19;;;;;;;7.8;3.6;;;;;;;6.39;65.35645;954.6635;;;;
2020/03/04 17:25:44;;;;;;;7;3.1;;;;;;;6.33;65.74512;954.6853;;;;
2020/03/04 17:28:09;;;;;;;9.9;3.2;;;;;;;6.28;66.20605;954.7068;;;;
2020/03/04 17:30:35;;;;;;;7.4;3.1;;;;;;;6.29;66.99219;954.6868;;;;
2020/03/04 17:33:00;;;;;;;6;3;;;;;;;6.06;68.7207;954.7288;;;;
2020/03/04 17:35:25;;;;;;;6.5;3.1;;;;;;;6.13;68.09473;954.7339;;;;
2020/03/04 17:37:57;;;;;;;7.5;3;;;;;;;6.13;67.9248;954.7125;;;;
2020/03/04 17:40:35;;;;;;;6;2.9;;;;;;;6.17;67.50879;954.7183;;;;
2020/03/04 17:43:00;;;;;;;7.2;3.2;;;;;;;6.05;68.74316;954.7618;;;;
2020/03/04 17:45:21;;;;;;;7.1;3.3;;;;;;;6.01;68.48438;954.8089;;;;
2020/03/04 17:47:55;;;;;;;6.3;3.2;;;;;;;6.14;67.75586;954.7814;;;;
2020/03/04 17:50:28;;;;;;;7.6;3.1;;;;;;;6.15;68.09863;954.8187;;;;
2020/03/04 17:52:50;;;;;;;7.6;3.2;;;;;;;6.05;70.28125;954.8242;;;;
2020/03/04 17:55:13;;;;;;;7.7;3.3;;;;;;;5.98;72.35352;954.8254;;;;
2020/03/04 17:57:38;;;;;;;6.2;3.3;;;;;;;5.95;73.65625;954.8074;;;;
2020/03/04 18:00:03;;;;;;;7.9;3.9;;;;;;;5.85;75.2793;954.7833;;;;
2020/03/04 18:02:28;;;;;;;8;3.8;;;;;;;5.85;74.52734;954.7864;;;;
2020/03/04 18:04:53;;;;;;;6.7;3.6;;;;;;;5.75;74.6123;954.7245;;;;
2020/03/04 18:07:18;;;;;;;8.1;4.4;;;;;;;5.81;74.47461;954.7902;;;;
2020/03/04 18:10:09;;;;;;;9.4;4.5;;;;;;;5.78;74.00488;954.7894;;;;
2020/03/04 18:12:09;;;;;;;8.8;4.7;;;;;;;5.8;74.25684;954.7129;;;;
2020/03/04 18:17:01;;;;;;;7.8;4.6;;;;;;;5.7;74.45508;954.7125;;;;
2020/03/04 18:19:24;;;;;;;10.6;4.9;;;;;;;5.67;75.36133;954.6711;;;;
2020/03/04 18:21:49;;;;;;;8.7;4.5;;;;;;;5.7;73.60156;954.6236;;;;
2020/03/04 18:24:14;;;;;;;8.5;5;;;;;;;5.44;75.70801;954.6177;;;;
2020/03/04 18:26:39;;;;;;;9.2;4.6;;;;;;;5.35;76.3291;954.6336;;;;
2020/03/04 18:29:04;;;;;;;10.9;4.6;;;;;;;5.17;77.68164;954.6301;;;;
2020/03/04 18:31:29;;;;;;;9;4.6;;;;;;;5.26;77.23438;954.5787;;;;
2020/03/04 18:33:54;;;;;;;10.1;4.9;;;;;;;5.33;76.3584;954.5609;;;;
2020/03/04 18:36:20;;;;;;;8.4;4.8;;;;;;;5.2;77.2207;954.5687;;;;
2020/03/04 18:38:45;;;;;;;9.8;4.8;;;;;;;5.27;77.76953;954.5744;;;;
2020/03/04 18:41:10;;;;;;;8.2;4.7;;;;;;;5.25;77.49219;954.5558;;;;
2020/03/04 18:43:36;;;;;;;9.5;5.1;;;;;;;5.19;78.85742;954.5953;;;;
2020/03/04 18:46:01;;;;;;;7.7;4.7;;;;;;;5.15;78.48535;954.6046;;;;
2020/03/04 18:48:26;;;;;;;10.5;4.8;;;;;;;5.12;80.41309;954.6125;;;;
2020/03/04 18:50:52;;;;;;;7.9;4.4;;;;;;;5.12;79.72949;954.5865;;;;
2020/03/04 18:53:17;;;;;;;8.9;4.8;;;;;;;5.09;79.38379;954.5525;;;;
2020/03/04 18:55:43;;;;;;;11;5.1;;;;;;;5.12;80.08105;954.5413;;;;
2020/03/04 18:58:08;;;;;;;9.6;5.2;;;;;;;5.14;78.4502;954.5366;;;;
2020/03/04 19:00:33;;;;;;;8.5;5.1;;;;;;;5.13;78.6416;954.4617;;;;
2020/03/04 19:02:58;;;;;;;8.7;5.3;;;;;;;5.09;78.74707;954.4767;;;;
2020/03/04 19:05:23;;;;;;;8.2;5.1;;;;;;;5.08;79.42871;954.5125;;;;
2020/03/04 19:07:49;;;;;;;12.7;7.8;;;;;;;4.92;80.31738;954.4583;;;;
2020/03/04 19:10:14;;;;;;;16.8;13;;;;;;;4.95;78.99512;954.4576;;;;
2020/03/04 19:12:39;;;;;;;19.3;15.4;;;;;;;5;78.55078;954.4392;;;;
2020/03/04 19:15:04;;;;;;;19.2;16.1;;;;;;;4.98;78.3877;954.4611;;;;
2020/03/04 19:17:29;;;;;;;18.8;15.5;;;;;;;4.91;79.48633;954.4186;;;;
2020/03/04 19:19:54;;;;;;;16.2;13.5;;;;;;;4.84;80.24707;954.3983;;;;
2020/03/04 19:22:20;;;;;;;15.7;10.7;;;;;;;4.85;79.4082;954.3868;;;;
2020/03/04 19:24:45;;;;;;;12.4;9.5;;;;;;;4.83;80.61816;954.4005;;;;
2020/03/04 19:27:10;;;;;;;12.2;8.9;;;;;;;4.76;79.35742;954.3661;;;;
2020/03/04 19:29:35;;;;;;;14.8;9.8;;;;;;;4.74;81.10059;954.3273;;;;
2020/03/04 19:32:01;;;;;;;12.2;9.6;;;;;;;4.68;80.26172;954.3464;;;;
2020/03/04 19:34:26;;;;;;;15.9;10.1;;;;;;;4.68;80.0918;954.2545;;;;
2020/03/04 19:36:51;;;;;;;13.5;9.6;;;;;;;4.55;81.50781;954.255;;;;
2020/03/04 19:39:16;;;;;;;11.2;7.9;;;;;;;4.56;81.14844;954.1916;;;;
2020/03/04 19:41:41;;;;;;;15.5;8;;;;;;;4.53;81.61816;954.2261;;;;
2020/03/04 19:44:06;;;;;;;12.9;7.9;;;;;;;4.53;81.8916;954.2092;;;;
2020/03/04 19:46:31;;;;;;;13.3;8;;;;;;;4.49;82.6875;954.1506;;;;
2020/03/04 19:48:57;;;;;;;13.1;7.3;;;;;;;4.48;81.9043;954.1194;;;;
2020/03/04 19:51:22;;;;;;;12.7;7.2;;;;;;;4.4;81.52441;954.119;;;;
2020/03/04 19:53:47;;;;;;;11.2;7.3;;;;;;;4.4;82.5791;954.1013;;;;
2020/03/04 19:56:12;;;;;;;10.8;7.1;;;;;;;4.49;81.88184;954.0692;;;;
2020/03/04 19:58:37;;;;;;;11.7;7.6;;;;;;;4.4;81.97949;954.0759;;;;
2020/03/04 20:01:03;;;;;;;11.8;6.9;;;;;;;4.42;82.03809;954.0795;;;;
2020/03/04 20:03:28;;;;;;;12.2;6.9;;;;;;;4.45;81.875;954.0103;;;;
2020/03/04 20:05:53;;;;;;;10.8;7.2;;;;;;;4.29;82.43555;954.0109;;;;
2020/03/04 20:08:18;;;;;;;13.4;7.7;;;;;;;4.2;83.23242;954.0086;;;;
2020/03/04 20:10:43;;;;;;;12.1;6.7;;;;;;;4.15;82.75684;953.9913;;;;
2020/03/04 20:13:08;;;;;;;12;7;;;;;;;4.21;82.31543;953.9048;;;;
2020/03/04 20:15:33;;;;;;;12.5;7.7;;;;;;;4.12;82.75195;953.9056;;;;
2020/03/04 20:17:59;;;;;;;13.6;7.6;;;;;;;4.13;83.36621;953.8933;;;;
2020/03/04 20:20:24;;;;;;;13.6;7.7;;;;;;;4.14;82.38184;953.8702;;;;
2020/03/04 20:22:49;;;;;;;11.2;7.3;;;;;;;4.22;81.48047;953.8376;;;;
2020/03/04 20:25:14;;;;;;;13.3;7.9;;;;;;;4.21;82.82617;953.8959;;;;
2020/03/04 20:28:31;;;;;;;11.7;7.9;;;;;;;4.09;82.30469;953.8806;;;;
2020/03/04 20:30:56;;;;;;;11.4;8.1;;;;;;;4.09;82.41797;953.9006;;;;
2020/03/04 20:33:21;;;;;;;13.5;7.9;;;;;;;4.08;82.67578;953.902;;;;
2020/03/04 20:35:46;;;;;;;12.3;8.4;;;;;;;4.09;81.88379;953.8965;;;;
2020/03/04 20:38:11;;;;;;;13;8.6;;;;;;;3.94;83.08008;953.9302;;;;
2020/03/04 20:40:47;;;;;;;14.3;9.6;;;;;;;3.81;83.15723;953.8539;;;;
2020/03/04 20:43:10;;;;;;;16.3;9.6;;;;;;;3.69;83.5957;953.8979;;;;
2020/03/04 20:45:28;;;;;;;17.5;9.8;;;;;;;3.8;83.08789;953.9126;;;;
2020/03/04 20:47:51;;;;;;;15.5;10.5;;;;;;;3.8;83.38086;953.8969;;;;
2020/03/04 20:50:16;;;;;;;15.6;9.9;;;;;;;3.75;83.79102;953.884;;;;
2020/03/04 20:52:41;;;;;;;13.2;8.1;;;;;;;3.81;82.5459;953.8766;;;;
2020/03/04 20:55:07;;;;;;;11.7;6.9;;;;;;;3.7;83.92969;953.8895;;;;
2020/03/04 20:57:32;;;;;;;10.9;6.7;;;;;;;3.69;83.56152;953.9077;;;;
2020/03/04 20:59:57;;;;;;;9.5;6;;;;;;;3.79;82.87988;953.8773;;;;
2020/03/04 21:02:22;;;;;;;9.8;5.7;;;;;;;3.62;82.63379;953.8378;;;;
2020/03/04 21:04:47;;;;;;;10.2;5.5;;;;;;;3.59;83.96094;953.8225;;;;
2020/03/04 21:07:13;;;;;;;9.6;5.5;;;;;;;3.5;83.82031;953.7682;;;;
2020/03/04 21:09:38;;;;;;;9.4;5.9;;;;;;;3.55;83.9668;953.7375;;;;
2020/03/04 21:12:03;;;;;;;8.5;5.5;;;;;;;3.6;82.8457;953.6903;;;;
2020/03/04 21:14:28;;;;;;;10.8;6.1;;;;;;;3.5;83.53809;953.6083;;;;
2020/03/04 21:17:00;;;;;;;9.3;6.3;;;;;;;3.56;83.38965;953.5661;;;;
2020/03/04 21:19:18;;;;;;;9;6.2;;;;;;;3.55;83.9668;953.5836;;;;
2020/03/04 21:23:35;;;;;;;12.8;7.3;;;;;;;3.5;82.39453;953.6272;;;;
2020/03/04 21:26:00;;;;;;;11.7;7.5;;;;;;;3.29;84.1875;953.6301;;;;
2020/03/04 21:28:25;;;;;;;10.8;7.6;;;;;;;3.23;84.38965;953.5517;;;;
2020/03/04 21:30:50;;;;;;;13.6;7.6;;;;;;;3.27;84.3291;953.5712;;;;
2020/03/04 21:33:15;;;;;;;12.5;7.6;;;;;;;3.19;84.08887;953.553;;;;
2020/03/04 21:35:40;;;;;;;11.2;7.7;;;;;;;3.28;83.6543;953.5297;;;;
2020/03/04 21:38:05;;;;;;;12.4;7.5;;;;;;;3.24;83.74707;953.4927;;;;
2020/03/04 21:40:30;;;;;;;10.7;7.1;;;;;;;3.22;84.375;953.4886;;;;
2020/03/04 21:42:55;;;;;;;11.1;7.5;;;;;;;3.06;84.44629;953.5778;;;;
2020/03/04 21:45:20;;;;;;;11.2;7.2;;;;;;;3.1;84.3291;953.6267;;;;
2020/03/04 21:47:45;;;;;;;13.6;7.7;;;;;;;2.93;84.56738;953.5952;;;;
2020/03/04 21:50:10;;;;;;;10.7;7;;;;;;;2.98;85.06348;953.6303;;;;
2020/03/04 21:52:36;;;;;;;13;7.8;;;;;;;2.83;84.93164;953.5561;;;;
2020/03/04 21:55:01;;;;;;;11.3;7.4;;;;;;;2.91;84.85938;953.5698;;;;
2020/03/04 21:57:26;;;;;;;11.6;7.3;;;;;;;2.83;84.09668;953.5209;;;;
2020/03/04 21:59:51;;;;;;;12.9;7.8;;;;;;;2.8;83.19727;953.5277;;;;
2020/03/04 22:02:16;;;;;;;12;7.8;;;;;;;2.87;83.88965;953.5025;;;;
2020/03/04 22:04:41;;;;;;;12.7;7.6;;;;;;;2.85;82.17676;953.4869;;;;
2020/03/04 22:07:06;;;;;;;10.1;7;;;;;;;2.92;81.42383;953.4559;;;;
2020/03/04 22:09:31;;;;;;;12.1;7.1;;;;;;;2.96;81.93945;953.4664;;;;
2020/03/04 22:11:56;;;;;;;12;6.9;;;;;;;2.87;81.71875;953.3979;;;;
2020/03/04 22:14:21;;;;;;;10.8;7.2;;;;;;;2.88;82.21777;953.3828;;;;
2020/03/04 22:16:47;;;;;;;9.8;6.9;;;;;;;2.87;81.24414;953.4011;;;;
2020/03/04 22:19:12;;;;;;;10;6.4;;;;;;;2.97;81.74902;953.3187;;;;
2020/03/04 22:21:37;;;;;;;9.7;6.5;;;;;;;3.01;80.77246;953.2734;;;;
2020/03/04 22:24:03;;;;;;;7.6;5.7;;;;;;;2.93;80.53125;953.2029;;;;
2020/03/04 22:26:28;;;;;;;11;6.3;;;;;;;2.97;80.17773;953.2043;;;;
2020/03/04 22:28:53;;;;;;;9.2;6.2;;;;;;;3.07;79.55176;953.1926;;;;
2020/03/04 22:31:19;;;;;;;9.5;6.5;;;;;;;2.98;80.86914;953.1074;;;;
2020/03/04 22:33:44;;;;;;;9.5;6.5;;;;;;;2.86;80.60938;953.0281;;;;
2020/03/04 22:36:09;;;;;;;10.4;6.5;;;;;;;2.79;80.84473;953.015;;;;
2020/03/04 22:38:34;;;;;;;9.2;6.6;;;;;;;2.72;81.61035;952.9895;;;;
2020/03/04 22:41:00;;;;;;;11;6.8;;;;;;;2.68;82.76563;952.9985;;;;
2020/03/04 22:43:25;;;;;;;11.1;6.8;;;;;;;2.64;82.55566;952.9161;;;;
2020/03/04 22:45:50;;;;;;;12.3;7.6;;;;;;;2.56;83.77051;952.9233;;;;
2020/03/04 22:48:16;;;;;;;10.6;6.9;;;;;;;2.43;83.19238;952.9014;;;;
2020/03/04 22:50:40;;;;;;;11.9;7.5;;;;;;;2.54;82.99707;952.8716;;;;
2020/03/04 22:53:06;;;;;;;11.2;8;;;;;;;2.44;82.82031;952.8326;;;;
2020/03/04 22:55:31;;;;;;;10.5;7.8;;;;;;;2.41;84.26074;952.8267;;;;
2020/03/04 22:57:56;;;;;;;13.2;7.9;;;;;;;2.37;84.04785;952.7688;;;;
2020/03/04 23:00:23;;;;;;;10.1;7.4;;;;;;;2.39;83.61328;952.7599;;;;
2020/03/04 23:02:46;;;;;;;11;7.8;;;;;;;2.48;84.21777;952.7544;;;;
2020/03/04 23:05:11;;;;;;;14.2;9;;;;;;;2.53;83.18945;952.7541;;;;
2020/03/04 23:07:36;;;;;;;12.1;8.2;;;;;;;2.42;83.8916;952.7292;;;;
2020/03/04 23:10:01;;;;;;;12.1;8.1;;;;;;;2.52;83.60547;952.7338;;;;
2020/03/04 23:12:26;;;;;;;10.8;7.4;;;;;;;2.37;83.9502;952.683;;;;
2020/03/04 23:14:52;;;;;;;10.5;7.1;;;;;;;2.42;83.77637;952.6613;;;;
2020/03/04 23:17:17;;;;;;;11.6;7.3;;;;;;;2.39;84.03125;952.64;;;;
2020/03/04 23:19:42;;;;;;;11.1;7.3;;;;;;;2.43;83.22656;952.6209;;;;
2020/03/04 23:22:07;;;;;;;11.5;7.2;;;;;;;2.21;83.02441;952.5535;;;;
2020/03/04 23:24:32;;;;;;;9.6;7.2;;;;;;;2.18;84.63184;952.4969;;;;
2020/03/04 23:26:58;;;;;;;10.6;7.1;;;;;;;2.29;83.83105;952.519;;;;
2020/03/04 23:29:23;;;;;;;11.7;7.3;;;;;;;2.16;82.49707;952.404;;;;
2020/03/04 23:31:48;;;;;;;10.8;7;;;;;;;2.28;82.86914;952.428;;;;
2020/03/04 23:34:13;;;;;;;9.7;6.6;;;;;;;2.29;81.77637;952.3639;;;;
2020/03/04 23:36:38;;;;;;;10.3;6.5;;;;;;;1.88;83.09668;952.3253;;;;
2020/03/04 23:39:03;;;;;;;9.5;6.4;;;;;;;2;83.52441;952.2737;;;;
2020/03/04 23:41:28;;;;;;;10.8;6.5;;;;;;;2.07;82.70313;952.2662;;;;
2020/03/04 23:43:54;;;;;;;11.1;6.2;;;;;;;2.07;81.5752;952.2733;;;;
2020/03/04 23:46:19;;;;;;;9.7;5.7;;;;;;;1.8;82.33691;952.1945;;;;
2020/03/04 23:48:44;;;;;;;8.3;5.7;;;;;;;1.79;82.21094;952.1795;;;;
2020/03/04 23:51:09;;;;;;;8.9;5.7;;;;;;;1.79;81.85938;952.1707;;;;
2020/03/04 23:53:34;;;;;;;9.2;5.3;;;;;;;1.73;82.0957;952.0894;;;;
2020/03/04 23:56:02;;;;;;;8.7;5.6;;;;;;;1.74;82.62695;952.0201;;;;
2020/03/04 23:58:24;;;;;;;9;5.7;;;;;;;1.91;81.42188;952.0453;;;;
